sensor_id;sensor_type;location;lat;lon;timestamp;temperature;humidity
49242;DHT22;35079;52.704;13.814;2022-12-20T00:01:19;3.60;99.90
49242;DHT22;35079;52.704;13.814;2022-12-20T00:03:45;3.60;99.90
49242;DHT22;35079;52.704;13.814;2022-12-20T00:06:11;3.50;99.90
49242;DHT22;35079;52.704;13.814;2022-12-20T00:08:38;3.60;99.90
49242;DHT22;35079;52.704;13.814;2022-12-20T00:11:05;3.60;99.90
49242;DHT22;35079;52.704;13.814;2022-12-20T00:13:32;3.80;99.90
49242;DHT22;35079;52.704;13.814;2022-12-20T00:16:09;3.70;99.90
49242;DHT22;35079;52.704;13.814;2022-12-20T00:18:36;3.80;99.90
49242;DHT22;35079;52.704;13.814;2022-12-20T00:21:04;3.70;99.90
49242;DHT22;35079;52.704;13.814;2022-12-20T00:23:30;3.60;99.90
49242;DHT22;35079;52.704;13.814;2022-12-20T00:26:03;3.80;99.90
49242;DHT22;35079;52.704;13.814;2022-12-20T00:28:30;3.80;99.90
49242;DHT22;35079;52.704;13.814;2022-12-20T00:30:56;3.80;99.90
49242;DHT22;35079;52.704;13.814;2022-12-20T00:33:21;3.80;99.90
49242;DHT22;35079;52.704;13.814;2022-12-20T00:35:47;3.70;99.90
49242;DHT22;35079;52.704;13.814;2022-12-20T00:38:13;3.80;99.90
49242;DHT22;35079;52.704;13.814;2022-12-20T00:40:39;3.70;99.90
49242;DHT22;35079;52.704;13.814;2022-12-20T00:43:04;3.60;99.90
49242;DHT22;35079;52.704;13.814;2022-12-20T00:45:30;3.60;99.90
49242;DHT22;35079;52.704;13.814;2022-12-20T00:47:56;3.60;99.90
49242;DHT22;35079;52.704;13.814;2022-12-20T00:50:21;3.80;99.90
49242;DHT22;35079;52.704;13.814;2022-12-20T00:52:47;3.70;99.90
49242;DHT22;35079;52.704;13.814;2022-12-20T00:55:13;3.60;99.90
49242;DHT22;35079;52.704;13.814;2022-12-20T00:57:38;3.70;99.90
49242;DHT22;35079;52.704;13.814;2022-12-20T01:00:05;3.60;99.90
49242;DHT22;35079;52.704;13.814;2022-12-20T01:02:31;3.60;99.90
49242;DHT22;35079;52.704;13.814;2022-12-20T01:04:57;3.60;99.90
49242;DHT22;35079;52.704;13.814;2022-12-20T01:07:23;3.70;99.90
49242;DHT22;35079;52.704;13.814;2022-12-20T01:09:49;3.70;99.90
49242;DHT22;35079;52.704;13.814;2022-12-20T01:12:15;3.60;99.90
49242;DHT22;35079;52.704;13.814;2022-12-20T01:14:40;3.70;99.90
49242;DHT22;35079;52.704;13.814;2022-12-20T01:17:06;3.60;99.90
49242;DHT22;35079;52.704;13.814;2022-12-20T01:19:32;3.80;99.90
49242;DHT22;35079;52.704;13.814;2022-12-20T01:21:58;3.80;99.90
49242;DHT22;35079;52.704;13.814;2022-12-20T01:24:23;3.60;99.90
49242;DHT22;35079;52.704;13.814;2022-12-20T01:26:49;3.60;99.90
49242;DHT22;35079;52.704;13.814;2022-12-20T01:29:15;3.60;99.90
49242;DHT22;35079;52.704;13.814;2022-12-20T01:31:40;3.60;99.90
49242;DHT22;35079;52.704;13.814;2022-12-20T01:34:06;3.60;99.90
49242;DHT22;35079;52.704;13.814;2022-12-20T01:36:34;3.70;99.90
49242;DHT22;35079;52.704;13.814;2022-12-20T01:39:04;3.60;99.90
49242;DHT22;35079;52.704;13.814;2022-12-20T01:41:31;3.80;99.90
49242;DHT22;35079;52.704;13.814;2022-12-20T01:44:00;3.70;99.90
49242;DHT22;35079;52.704;13.814;2022-12-20T01:46:31;3.60;99.90
49242;DHT22;35079;52.704;13.814;2022-12-20T01:52:08;3.70;99.90
49242;DHT22;35079;52.704;13.814;2022-12-20T01:54:40;3.60;99.90
49242;DHT22;35079;52.704;13.814;2022-12-20T01:57:14;3.70;99.90
49242;DHT22;35079;52.704;13.814;2022-12-20T01:59:44;3.70;99.90
49242;DHT22;35079;52.704;13.814;2022-12-20T02:02:11;3.70;99.90
49242;DHT22;35079;52.704;13.814;2022-12-20T02:04:37;3.70;99.90
49242;DHT22;35079;52.704;13.814;2022-12-20T02:07:03;3.80;99.90
49242;DHT22;35079;52.704;13.814;2022-12-20T02:09:31;3.80;99.90
49242;DHT22;35079;52.704;13.814;2022-12-20T02:12:10;3.70;99.90
49242;DHT22;35079;52.704;13.814;2022-12-20T02:20:46;3.80;99.90
49242;DHT22;35079;52.704;13.814;2022-12-20T02:29:36;3.70;99.90
49242;DHT22;35079;52.704;13.814;2022-12-20T02:32:19;3.70;99.90
49242;DHT22;35079;52.704;13.814;2022-12-20T02:34:47;3.70;99.90
49242;DHT22;35079;52.704;13.814;2022-12-20T02:37:13;3.80;99.90
49242;DHT22;35079;52.704;13.814;2022-12-20T02:39:39;3.80;99.90
49242;DHT22;35079;52.704;13.814;2022-12-20T02:42:11;3.80;99.90
49242;DHT22;35079;52.704;13.814;2022-12-20T02:44:42;3.80;99.90
49242;DHT22;35079;52.704;13.814;2022-12-20T02:47:54;3.70;99.90
49242;DHT22;35079;52.704;13.814;2022-12-20T02:50:31;3.80;99.90
49242;DHT22;35079;52.704;13.814;2022-12-20T02:52:59;3.80;99.90
49242;DHT22;35079;52.704;13.814;2022-12-20T02:55:40;3.90;99.90
49242;DHT22;35079;52.704;13.814;2022-12-20T02:59:20;3.90;99.90
49242;DHT22;35079;52.704;13.814;2022-12-20T03:01:19;3.80;99.90
49242;DHT22;35079;52.704;13.814;2022-12-20T03:03:46;3.80;99.90
49242;DHT22;35079;52.704;13.814;2022-12-20T03:06:13;3.80;99.90
49242;DHT22;35079;52.704;13.814;2022-12-20T03:08:38;4.00;99.90
49242;DHT22;35079;52.704;13.814;2022-12-20T03:11:04;3.90;99.90
49242;DHT22;35079;52.704;13.814;2022-12-20T03:13:30;3.90;99.90
49242;DHT22;35079;52.704;13.814;2022-12-20T03:15:55;4.00;99.90
49242;DHT22;35079;52.704;13.814;2022-12-20T03:18:21;4.00;99.90
49242;DHT22;35079;52.704;13.814;2022-12-20T03:20:46;4.10;99.90
49242;DHT22;35079;52.704;13.814;2022-12-20T03:23:12;4.00;99.90
49242;DHT22;35079;52.704;13.814;2022-12-20T03:25:37;4.10;99.90
49242;DHT22;35079;52.704;13.814;2022-12-20T03:28:03;4.10;99.90
49242;DHT22;35079;52.704;13.814;2022-12-20T03:30:29;4.00;99.90
49242;DHT22;35079;52.704;13.814;2022-12-20T03:32:54;4.00;99.90
49242;DHT22;35079;52.704;13.814;2022-12-20T03:35:20;3.90;99.90
49242;DHT22;35079;52.704;13.814;2022-12-20T03:37:45;4.00;99.90
49242;DHT22;35079;52.704;13.814;2022-12-20T03:40:11;4.10;99.90
49242;DHT22;35079;52.704;13.814;2022-12-20T03:42:37;4.00;99.90
49242;DHT22;35079;52.704;13.814;2022-12-20T03:45:04;4.00;99.90
49242;DHT22;35079;52.704;13.814;2022-12-20T03:47:29;4.10;99.90
49242;DHT22;35079;52.704;13.814;2022-12-20T03:49:55;4.10;99.90
49242;DHT22;35079;52.704;13.814;2022-12-20T03:52:21;4.10;99.90
49242;DHT22;35079;52.704;13.814;2022-12-20T03:54:47;4.10;99.90
49242;DHT22;35079;52.704;13.814;2022-12-20T03:57:13;4.10;99.90
49242;DHT22;35079;52.704;13.814;2022-12-20T03:59:39;4.10;99.90
49242;DHT22;35079;52.704;13.814;2022-12-20T04:02:05;4.30;99.90
49242;DHT22;35079;52.704;13.814;2022-12-20T04:04:31;4.10;99.90
49242;DHT22;35079;52.704;13.814;2022-12-20T04:06:56;4.30;99.90
49242;DHT22;35079;52.704;13.814;2022-12-20T04:09:22;4.10;99.90
49242;DHT22;35079;52.704;13.814;2022-12-20T04:11:47;4.10;99.90
49242;DHT22;35079;52.704;13.814;2022-12-20T04:14:13;4.20;99.90
49242;DHT22;35079;52.704;13.814;2022-12-20T04:16:38;4.10;99.90
49242;DHT22;35079;52.704;13.814;2022-12-20T04:19:04;4.20;99.90
49242;DHT22;35079;52.704;13.814;2022-12-20T04:21:32;4.10;99.90
49242;DHT22;35079;52.704;13.814;2022-12-20T04:24:00;4.10;99.90
49242;DHT22;35079;52.704;13.814;2022-12-20T04:26:26;4.10;99.90
49242;DHT22;35079;52.704;13.814;2022-12-20T04:28:52;4.10;99.90
49242;DHT22;35079;52.704;13.814;2022-12-20T04:31:18;4.00;99.90
49242;DHT22;35079;52.704;13.814;2022-12-20T04:33:44;4.10;99.90
49242;DHT22;35079;52.704;13.814;2022-12-20T04:36:10;3.90;99.90
49242;DHT22;35079;52.704;13.814;2022-12-20T04:38:36;4.00;99.90
49242;DHT22;35079;52.704;13.814;2022-12-20T04:41:01;4.00;99.90
49242;DHT22;35079;52.704;13.814;2022-12-20T04:43:27;4.10;99.90
49242;DHT22;35079;52.704;13.814;2022-12-20T04:45:54;4.00;99.90
49242;DHT22;35079;52.704;13.814;2022-12-20T04:48:24;4.00;99.90
49242;DHT22;35079;52.704;13.814;2022-12-20T04:50:54;4.00;99.90
49242;DHT22;35079;52.704;13.814;2022-12-20T04:53:21;3.80;99.90
49242;DHT22;35079;52.704;13.814;2022-12-20T04:56:05;3.70;99.90
49242;DHT22;35079;52.704;13.814;2022-12-20T04:58:31;3.70;99.90
49242;DHT22;35079;52.704;13.814;2022-12-20T05:00:57;3.70;99.90
49242;DHT22;35079;52.704;13.814;2022-12-20T05:03:23;3.60;99.90
49242;DHT22;35079;52.704;13.814;2022-12-20T05:05:50;3.80;99.90
49242;DHT22;35079;52.704;13.814;2022-12-20T05:08:15;3.70;99.90
49242;DHT22;35079;52.704;13.814;2022-12-20T05:10:41;3.50;99.90
49242;DHT22;35079;52.704;13.814;2022-12-20T05:13:07;3.50;99.90
49242;DHT22;35079;52.704;13.814;2022-12-20T05:15:33;3.60;99.90
49242;DHT22;35079;52.704;13.814;2022-12-20T05:17:58;3.60;99.90
49242;DHT22;35079;52.704;13.814;2022-12-20T05:20:29;3.60;99.90
49242;DHT22;35079;52.704;13.814;2022-12-20T05:22:55;3.60;99.90
49242;DHT22;35079;52.704;13.814;2022-12-20T05:25:45;3.60;99.90
49242;DHT22;35079;52.704;13.814;2022-12-20T05:28:30;3.50;99.90
49242;DHT22;35079;52.704;13.814;2022-12-20T05:30:56;3.60;99.90
49242;DHT22;35079;52.704;13.814;2022-12-20T05:33:22;3.50;99.90
49242;DHT22;35079;52.704;13.814;2022-12-20T05:35:47;3.50;99.90
49242;DHT22;35079;52.704;13.814;2022-12-20T05:38:13;3.50;99.90
49242;DHT22;35079;52.704;13.814;2022-12-20T05:40:39;3.40;99.90
49242;DHT22;35079;52.704;13.814;2022-12-20T05:43:05;3.50;99.90
49242;DHT22;35079;52.704;13.814;2022-12-20T05:45:31;3.50;99.90
49242;DHT22;35079;52.704;13.814;2022-12-20T05:47:57;3.40;99.90
49242;DHT22;35079;52.704;13.814;2022-12-20T05:50:23;3.40;99.90
49242;DHT22;35079;52.704;13.814;2022-12-20T05:52:48;3.30;99.90
49242;DHT22;35079;52.704;13.814;2022-12-20T05:55:14;3.50;99.90
49242;DHT22;35079;52.704;13.814;2022-12-20T05:57:40;3.50;99.90
49242;DHT22;35079;52.704;13.814;2022-12-20T06:00:06;3.50;99.90
49242;DHT22;35079;52.704;13.814;2022-12-20T06:02:32;3.60;99.90
49242;DHT22;35079;52.704;13.814;2022-12-20T06:04:58;3.60;99.90
49242;DHT22;35079;52.704;13.814;2022-12-20T06:07:25;3.70;99.90
49242;DHT22;35079;52.704;13.814;2022-12-20T06:09:53;3.70;99.90
49242;DHT22;35079;52.704;13.814;2022-12-20T06:12:19;3.70;99.90
49242;DHT22;35079;52.704;13.814;2022-12-20T06:14:45;3.80;99.90
49242;DHT22;35079;52.704;13.814;2022-12-20T06:17:10;3.80;99.90
49242;DHT22;35079;52.704;13.814;2022-12-20T06:19:36;3.90;99.90
49242;DHT22;35079;52.704;13.814;2022-12-20T06:22:02;4.00;99.90
49242;DHT22;35079;52.704;13.814;2022-12-20T06:24:27;3.90;99.90
49242;DHT22;35079;52.704;13.814;2022-12-20T06:26:53;3.90;99.90
49242;DHT22;35079;52.704;13.814;2022-12-20T06:29:19;4.00;99.90
49242;DHT22;35079;52.704;13.814;2022-12-20T06:31:46;3.90;99.90
49242;DHT22;35079;52.704;13.814;2022-12-20T06:34:12;3.90;99.90
49242;DHT22;35079;52.704;13.814;2022-12-20T06:36:38;3.90;99.90
49242;DHT22;35079;52.704;13.814;2022-12-20T06:39:04;4.10;99.90
49242;DHT22;35079;52.704;13.814;2022-12-20T06:41:29;4.10;99.90
49242;DHT22;35079;52.704;13.814;2022-12-20T06:43:55;4.00;99.90
49242;DHT22;35079;52.704;13.814;2022-12-20T06:46:20;4.10;99.90
49242;DHT22;35079;52.704;13.814;2022-12-20T06:48:46;4.10;99.90
49242;DHT22;35079;52.704;13.814;2022-12-20T06:51:12;4.10;99.90
49242;DHT22;35079;52.704;13.814;2022-12-20T06:53:37;4.20;99.90
49242;DHT22;35079;52.704;13.814;2022-12-20T06:56:03;4.30;99.90
49242;DHT22;35079;52.704;13.814;2022-12-20T06:58:29;4.10;99.90
49242;DHT22;35079;52.704;13.814;2022-12-20T07:00:54;4.20;99.90
49242;DHT22;35079;52.704;13.814;2022-12-20T07:03:20;4.00;99.90
49242;DHT22;35079;52.704;13.814;2022-12-20T07:05:51;4.10;99.90
49242;DHT22;35079;52.704;13.814;2022-12-20T07:08:17;4.10;99.90
49242;DHT22;35079;52.704;13.814;2022-12-20T07:10:43;4.20;99.90
49242;DHT22;35079;52.704;13.814;2022-12-20T07:13:09;4.20;99.90
49242;DHT22;35079;52.704;13.814;2022-12-20T07:15:34;4.30;99.90
49242;DHT22;35079;52.704;13.814;2022-12-20T07:18:00;4.20;99.90
49242;DHT22;35079;52.704;13.814;2022-12-20T07:20:26;4.30;99.90
49242;DHT22;35079;52.704;13.814;2022-12-20T07:22:51;4.30;99.90
49242;DHT22;35079;52.704;13.814;2022-12-20T07:25:17;4.30;99.90
49242;DHT22;35079;52.704;13.814;2022-12-20T07:27:46;4.20;99.90
49242;DHT22;35079;52.704;13.814;2022-12-20T07:30:12;4.40;99.90
49242;DHT22;35079;52.704;13.814;2022-12-20T07:32:38;4.30;99.90
49242;DHT22;35079;52.704;13.814;2022-12-20T07:35:04;4.50;99.90
49242;DHT22;35079;52.704;13.814;2022-12-20T07:37:30;4.40;99.90
49242;DHT22;35079;52.704;13.814;2022-12-20T07:39:56;4.50;99.90
49242;DHT22;35079;52.704;13.814;2022-12-20T07:42:21;4.30;99.90
49242;DHT22;35079;52.704;13.814;2022-12-20T07:44:47;4.40;99.90
49242;DHT22;35079;52.704;13.814;2022-12-20T07:47:12;4.40;99.90
49242;DHT22;35079;52.704;13.814;2022-12-20T07:49:38;4.60;99.90
49242;DHT22;35079;52.704;13.814;2022-12-20T07:52:05;4.40;99.90
49242;DHT22;35079;52.704;13.814;2022-12-20T07:54:35;4.60;99.90
49242;DHT22;35079;52.704;13.814;2022-12-20T07:57:05;4.60;99.90
49242;DHT22;35079;52.704;13.814;2022-12-20T07:59:37;4.60;99.90
49242;DHT22;35079;52.704;13.814;2022-12-20T08:02:05;4.60;99.90
49242;DHT22;35079;52.704;13.814;2022-12-20T08:04:32;4.70;99.90
49242;DHT22;35079;52.704;13.814;2022-12-20T08:06:59;4.60;99.90
49242;DHT22;35079;52.704;13.814;2022-12-20T08:09:31;4.60;99.90
49242;DHT22;35079;52.704;13.814;2022-12-20T08:12:00;4.60;99.90
49242;DHT22;35079;52.704;13.814;2022-12-20T08:14:25;4.70;99.90
49242;DHT22;35079;52.704;13.814;2022-12-20T08:16:51;4.80;99.90
49242;DHT22;35079;52.704;13.814;2022-12-20T08:19:17;4.80;99.90
49242;DHT22;35079;52.704;13.814;2022-12-20T08:21:42;4.70;99.90
49242;DHT22;35079;52.704;13.814;2022-12-20T08:24:08;4.70;99.90
49242;DHT22;35079;52.704;13.814;2022-12-20T08:26:40;4.70;99.90
49242;DHT22;35079;52.704;13.814;2022-12-20T08:29:06;4.80;99.90
49242;DHT22;35079;52.704;13.814;2022-12-20T08:31:36;4.80;99.90
49242;DHT22;35079;52.704;13.814;2022-12-20T08:34:01;4.80;99.90
49242;DHT22;35079;52.704;13.814;2022-12-20T08:36:27;4.80;99.90
49242;DHT22;35079;52.704;13.814;2022-12-20T08:38:53;4.90;99.90
49242;DHT22;35079;52.704;13.814;2022-12-20T08:41:18;5.00;99.90
49242;DHT22;35079;52.704;13.814;2022-12-20T08:43:44;5.00;99.90
49242;DHT22;35079;52.704;13.814;2022-12-20T08:46:10;4.90;99.90
49242;DHT22;35079;52.704;13.814;2022-12-20T08:48:37;5.00;99.90
49242;DHT22;35079;52.704;13.814;2022-12-20T08:51:07;4.90;99.90
49242;DHT22;35079;52.704;13.814;2022-12-20T08:53:34;5.10;99.90
49242;DHT22;35079;52.704;13.814;2022-12-20T08:56:08;5.10;99.90
49242;DHT22;35079;52.704;13.814;2022-12-20T08:58:35;5.00;99.90
49242;DHT22;35079;52.704;13.814;2022-12-20T09:01:02;5.10;99.90
49242;DHT22;35079;52.704;13.814;2022-12-20T09:03:29;5.00;99.90
49242;DHT22;35079;52.704;13.814;2022-12-20T09:05:56;5.20;99.90
49242;DHT22;35079;52.704;13.814;2022-12-20T09:08:22;5.20;99.90
49242;DHT22;35079;52.704;13.814;2022-12-20T09:10:48;5.20;99.90
49242;DHT22;35079;52.704;13.814;2022-12-20T09:13:13;5.10;99.90
49242;DHT22;35079;52.704;13.814;2022-12-20T09:15:39;5.30;99.90
49242;DHT22;35079;52.704;13.814;2022-12-20T09:18:05;5.20;99.90
49242;DHT22;35079;52.704;13.814;2022-12-20T09:20:31;5.20;99.90
49242;DHT22;35079;52.704;13.814;2022-12-20T09:22:58;5.20;99.90
49242;DHT22;35079;52.704;13.814;2022-12-20T09:25:25;5.30;99.90
49242;DHT22;35079;52.704;13.814;2022-12-20T09:27:51;5.40;99.90
49242;DHT22;35079;52.704;13.814;2022-12-20T09:30:17;5.40;99.90
49242;DHT22;35079;52.704;13.814;2022-12-20T09:32:43;5.30;99.90
49242;DHT22;35079;52.704;13.814;2022-12-20T09:35:08;5.40;99.90
49242;DHT22;35079;52.704;13.814;2022-12-20T09:37:34;5.40;99.90
49242;DHT22;35079;52.704;13.814;2022-12-20T09:40:00;5.60;99.90
49242;DHT22;35079;52.704;13.814;2022-12-20T09:42:27;5.50;99.90
49242;DHT22;35079;52.704;13.814;2022-12-20T09:45:06;5.50;99.90
49242;DHT22;35079;52.704;13.814;2022-12-20T09:47:33;5.70;99.90
49242;DHT22;35079;52.704;13.814;2022-12-20T09:50:02;5.90;99.90
49242;DHT22;35079;52.704;13.814;2022-12-20T09:55:35;6.10;99.90
49242;DHT22;35079;52.704;13.814;2022-12-20T10:00:40;6.40;99.90
49242;DHT22;35079;52.704;13.814;2022-12-20T10:03:16;6.40;99.90
49242;DHT22;35079;52.704;13.814;2022-12-20T10:08:36;6.50;99.90
49242;DHT22;35079;52.704;13.814;2022-12-20T10:14:59;6.50;99.90
49242;DHT22;35079;52.704;13.814;2022-12-20T10:17:04;6.60;99.90
49242;DHT22;35079;52.704;13.814;2022-12-20T10:22:41;6.70;99.90
49242;DHT22;35079;52.704;13.814;2022-12-20T10:27:45;6.80;99.90
49242;DHT22;35079;52.704;13.814;2022-12-20T10:30:17;6.80;99.90
49242;DHT22;35079;52.704;13.814;2022-12-20T10:32:45;6.90;99.90
49242;DHT22;35079;52.704;13.814;2022-12-20T10:38:01;6.90;99.90
49242;DHT22;35079;52.704;13.814;2022-12-20T10:40:31;7.10;99.90
49242;DHT22;35079;52.704;13.814;2022-12-20T10:42:58;7.20;99.90
49242;DHT22;35079;52.704;13.814;2022-12-20T10:45:36;7.10;99.90
49242;DHT22;35079;52.704;13.814;2022-12-20T10:48:05;7.40;99.90
49242;DHT22;35079;52.704;13.814;2022-12-20T10:50:32;7.50;99.90
49242;DHT22;35079;52.704;13.814;2022-12-20T10:53:21;7.60;99.90
49242;DHT22;35079;52.704;13.814;2022-12-20T10:55:48;7.50;99.90
49242;DHT22;35079;52.704;13.814;2022-12-20T10:58:35;7.50;99.90
49242;DHT22;35079;52.704;13.814;2022-12-20T11:01:11;7.80;99.90
49242;DHT22;35079;52.704;13.814;2022-12-20T11:03:49;7.70;99.90
49242;DHT22;35079;52.704;13.814;2022-12-20T11:06:17;7.60;99.90
49242;DHT22;35079;52.704;13.814;2022-12-20T11:08:43;7.50;99.90
49242;DHT22;35079;52.704;13.814;2022-12-20T11:11:22;7.60;99.90
49242;DHT22;35079;52.704;13.814;2022-12-20T11:13:50;7.60;99.90
49242;DHT22;35079;52.704;13.814;2022-12-20T11:21:32;7.70;99.90
49242;DHT22;35079;52.704;13.814;2022-12-20T11:44:14;7.50;99.90
49242;DHT22;35079;52.704;13.814;2022-12-20T11:55:17;7.40;99.90
49242;DHT22;35079;52.704;13.814;2022-12-20T12:00:19;7.40;99.90
49242;DHT22;35079;52.704;13.814;2022-12-20T12:05:45;7.40;99.90
49242;DHT22;35079;52.704;13.814;2022-12-20T12:08:20;7.40;99.90
49242;DHT22;35079;52.704;13.814;2022-12-20T12:10:58;7.60;99.90
49242;DHT22;35079;52.704;13.814;2022-12-20T12:13:27;7.70;99.90
49242;DHT22;35079;52.704;13.814;2022-12-20T12:16:09;7.70;99.90
49242;DHT22;35079;52.704;13.814;2022-12-20T12:18:38;7.80;99.90
49242;DHT22;35079;52.704;13.814;2022-12-20T12:21:22;7.70;99.90
49242;DHT22;35079;52.704;13.814;2022-12-20T12:26:35;7.60;99.90
49242;DHT22;35079;52.704;13.814;2022-12-20T12:29:13;7.60;99.90
49242;DHT22;35079;52.704;13.814;2022-12-20T12:35:22;7.60;99.90
49242;DHT22;35079;52.704;13.814;2022-12-20T12:45:45;7.50;99.90
49242;DHT22;35079;52.704;13.814;2022-12-20T12:48:20;7.50;99.90
49242;DHT22;35079;52.704;13.814;2022-12-20T12:50:55;7.60;99.90
49242;DHT22;35079;52.704;13.814;2022-12-20T12:53:36;7.40;99.90
49242;DHT22;35079;52.704;13.814;2022-12-20T13:01:54;7.30;99.90
49242;DHT22;35079;52.704;13.814;2022-12-20T13:04:29;7.30;99.90
49242;DHT22;35079;52.704;13.814;2022-12-20T13:07:00;7.20;99.90
49242;DHT22;35079;52.704;13.814;2022-12-20T13:11:56;7.10;99.90
49242;DHT22;35079;52.704;13.814;2022-12-20T13:16:54;7.30;99.90
49242;DHT22;35079;52.704;13.814;2022-12-20T13:19:40;7.10;99.90
49242;DHT22;35079;52.704;13.814;2022-12-20T13:27:40;6.90;99.90
49242;DHT22;35079;52.704;13.814;2022-12-20T13:33:49;6.80;99.90
49242;DHT22;35079;52.704;13.814;2022-12-20T13:35:56;6.90;99.90
49242;DHT22;35079;52.704;13.814;2022-12-20T13:43:41;6.80;99.90
49242;DHT22;35079;52.704;13.814;2022-12-20T13:48:38;6.70;99.90
49242;DHT22;35079;52.704;13.814;2022-12-20T13:51:06;6.50;99.90
49242;DHT22;35079;52.704;13.814;2022-12-20T13:53:33;6.60;99.90
49242;DHT22;35079;52.704;13.814;2022-12-20T13:56:41;6.60;99.90
49242;DHT22;35079;52.704;13.814;2022-12-20T13:59:24;6.40;99.90
49242;DHT22;35079;52.704;13.814;2022-12-20T14:01:57;6.40;99.90
49242;DHT22;35079;52.704;13.814;2022-12-20T14:04:38;6.40;99.90
49242;DHT22;35079;52.704;13.814;2022-12-20T14:07:05;6.50;99.90
49242;DHT22;35079;52.704;13.814;2022-12-20T14:09:36;6.40;99.90
49242;DHT22;35079;52.704;13.814;2022-12-20T14:12:14;6.40;99.90
49242;DHT22;35079;52.704;13.814;2022-12-20T14:14:45;6.30;99.90
49242;DHT22;35079;52.704;13.814;2022-12-20T14:17:26;6.40;99.90
49242;DHT22;35079;52.704;13.814;2022-12-20T14:20:06;6.30;99.90
49242;DHT22;35079;52.704;13.814;2022-12-20T14:22:33;6.30;99.90
49242;DHT22;35079;52.704;13.814;2022-12-20T14:25:01;6.20;99.90
49242;DHT22;35079;52.704;13.814;2022-12-20T14:27:32;6.20;99.90
49242;DHT22;35079;52.704;13.814;2022-12-20T14:29:58;6.20;99.90
49242;DHT22;35079;52.704;13.814;2022-12-20T14:32:24;6.00;99.90
49242;DHT22;35079;52.704;13.814;2022-12-20T14:34:51;6.10;99.90
49242;DHT22;35079;52.704;13.814;2022-12-20T14:37:35;6.20;99.90
49242;DHT22;35079;52.704;13.814;2022-12-20T14:40:16;6.10;99.90
49242;DHT22;35079;52.704;13.814;2022-12-20T14:42:42;6.00;99.90
49242;DHT22;35079;52.704;13.814;2022-12-20T14:47:36;6.00;99.90
49242;DHT22;35079;52.704;13.814;2022-12-20T14:50:04;6.20;99.90
49242;DHT22;35079;52.704;13.814;2022-12-20T14:55:03;6.00;99.90
49242;DHT22;35079;52.704;13.814;2022-12-20T15:02:51;5.90;99.90
49242;DHT22;35079;52.704;13.814;2022-12-20T15:10:38;5.80;99.90
49242;DHT22;35079;52.704;13.814;2022-12-20T15:13:11;5.90;99.90
49242;DHT22;35079;52.704;13.814;2022-12-20T15:15:38;5.70;99.90
49242;DHT22;35079;52.704;13.814;2022-12-20T15:18:14;5.70;99.90
49242;DHT22;35079;52.704;13.814;2022-12-20T15:20:42;5.70;99.90
49242;DHT22;35079;52.704;13.814;2022-12-20T15:23:17;5.60;99.90
49242;DHT22;35079;52.704;13.814;2022-12-20T15:25:44;5.60;99.90
49242;DHT22;35079;52.704;13.814;2022-12-20T15:28:19;5.70;99.90
49242;DHT22;35079;52.704;13.814;2022-12-20T15:30:46;5.50;99.90
49242;DHT22;35079;52.704;13.814;2022-12-20T15:33:30;5.50;99.90
49242;DHT22;35079;52.704;13.814;2022-12-20T15:35:57;5.40;99.90
49242;DHT22;35079;52.704;13.814;2022-12-20T15:38:24;5.40;99.90
49242;DHT22;35079;52.704;13.814;2022-12-20T15:40:53;5.40;99.90
49242;DHT22;35079;52.704;13.814;2022-12-20T15:43:21;5.50;99.90
49242;DHT22;35079;52.704;13.814;2022-12-20T15:45:51;5.50;99.90
49242;DHT22;35079;52.704;13.814;2022-12-20T15:48:22;5.50;99.90
49242;DHT22;35079;52.704;13.814;2022-12-20T15:50:52;5.50;99.90
49242;DHT22;35079;52.704;13.814;2022-12-20T15:53:24;5.50;99.90
49242;DHT22;35079;52.704;13.814;2022-12-20T15:55:53;5.40;99.90
49242;DHT22;35079;52.704;13.814;2022-12-20T15:58:18;5.50;99.90
49242;DHT22;35079;52.704;13.814;2022-12-20T16:00:44;5.60;99.90
49242;DHT22;35079;52.704;13.814;2022-12-20T16:03:21;5.50;99.90
49242;DHT22;35079;52.704;13.814;2022-12-20T16:05:48;5.60;99.90
49242;DHT22;35079;52.704;13.814;2022-12-20T16:08:16;5.60;99.90
49242;DHT22;35079;52.704;13.814;2022-12-20T16:10:47;5.60;99.90
49242;DHT22;35079;52.704;13.814;2022-12-20T16:13:15;5.50;99.90
49242;DHT22;35079;52.704;13.814;2022-12-20T16:15:42;5.50;99.90
49242;DHT22;35079;52.704;13.814;2022-12-20T16:18:07;5.50;99.90
49242;DHT22;35079;52.704;13.814;2022-12-20T16:20:33;5.50;99.90
49242;DHT22;35079;52.704;13.814;2022-12-20T16:23:00;5.50;99.90
49242;DHT22;35079;52.704;13.814;2022-12-20T16:25:30;5.40;99.90
49242;DHT22;35079;52.704;13.814;2022-12-20T16:27:56;5.40;99.90
49242;DHT22;35079;52.704;13.814;2022-12-20T16:30:23;5.40;99.90
49242;DHT22;35079;52.704;13.814;2022-12-20T16:32:49;5.50;99.90
49242;DHT22;35079;52.704;13.814;2022-12-20T16:35:35;5.40;99.90
49242;DHT22;35079;52.704;13.814;2022-12-20T16:38:04;5.40;99.90
49242;DHT22;35079;52.704;13.814;2022-12-20T16:40:31;5.40;99.90
49242;DHT22;35079;52.704;13.814;2022-12-20T16:42:58;5.40;99.90
49242;DHT22;35079;52.704;13.814;2022-12-20T16:45:26;5.20;99.90
49242;DHT22;35079;52.704;13.814;2022-12-20T16:47:52;5.30;99.90
49242;DHT22;35079;52.704;13.814;2022-12-20T16:50:20;5.30;99.90
49242;DHT22;35079;52.704;13.814;2022-12-20T16:52:46;5.40;99.90
49242;DHT22;35079;52.704;13.814;2022-12-20T16:55:23;5.30;99.90
49242;DHT22;35079;52.704;13.814;2022-12-20T16:57:50;5.30;99.90
49242;DHT22;35079;52.704;13.814;2022-12-20T17:00:19;5.30;99.90
49242;DHT22;35079;52.704;13.814;2022-12-20T17:02:46;5.20;99.90
49242;DHT22;35079;52.704;13.814;2022-12-20T17:05:24;5.20;99.90
49242;DHT22;35079;52.704;13.814;2022-12-20T17:07:52;5.30;99.90
49242;DHT22;35079;52.704;13.814;2022-12-20T17:10:18;5.20;99.90
49242;DHT22;35079;52.704;13.814;2022-12-20T17:12:44;5.30;99.90
49242;DHT22;35079;52.704;13.814;2022-12-20T17:15:36;5.40;99.90
49242;DHT22;35079;52.704;13.814;2022-12-20T17:18:03;5.30;99.90
49242;DHT22;35079;52.704;13.814;2022-12-20T17:20:30;5.20;99.90
49242;DHT22;35079;52.704;13.814;2022-12-20T17:22:55;5.30;99.90
49242;DHT22;35079;52.704;13.814;2022-12-20T17:25:29;5.30;99.90
49242;DHT22;35079;52.704;13.814;2022-12-20T17:27:57;5.20;99.90
49242;DHT22;35079;52.704;13.814;2022-12-20T17:30:24;5.20;99.90
49242;DHT22;35079;52.704;13.814;2022-12-20T17:32:50;5.20;99.90
49242;DHT22;35079;52.704;13.814;2022-12-20T17:35:24;5.30;99.90
49242;DHT22;35079;52.704;13.814;2022-12-20T17:37:49;5.20;99.90
49242;DHT22;35079;52.704;13.814;2022-12-20T17:40:17;5.20;99.90
49242;DHT22;35079;52.704;13.814;2022-12-20T17:42:43;5.20;99.90
49242;DHT22;35079;52.704;13.814;2022-12-20T17:45:21;5.10;99.90
49242;DHT22;35079;52.704;13.814;2022-12-20T17:47:47;5.00;99.90
49242;DHT22;35079;52.704;13.814;2022-12-20T17:50:16;5.10;99.90
49242;DHT22;35079;52.704;13.814;2022-12-20T17:52:43;5.10;99.90